createdAt,value
2017-04-05T00:00:49.273Z,1018.54
2017-04-05T00:01:49.329Z,1018.52
2017-04-05T00:02:49.284Z,1018.51
2017-04-05T00:03:49.295Z,1018.51
2017-04-05T00:04:49.295Z,1018.57
2017-04-05T00:05:49.298Z,1018.55
2017-04-05T00:06:49.303Z,1018.55
2017-04-05T00:07:49.314Z,1018.56
2017-04-05T00:08:49.315Z,1018.51
2017-04-05T00:09:49.320Z,1018.53
2017-04-05T00:10:49.328Z,1018.5
2017-04-05T00:11:49.381Z,1018.51
2017-04-05T00:12:49.485Z,1018.5
2017-04-05T00:13:49.341Z,1018.49
2017-04-05T00:14:49.344Z,1018.46
2017-04-05T00:15:49.349Z,1018.45
2017-04-05T00:16:49.354Z,1018.43
2017-04-05T00:17:49.365Z,1018.42
2017-04-05T00:18:49.366Z,1018.38
2017-04-05T00:19:49.371Z,1018.36
2017-04-05T00:20:49.375Z,1018.35
2017-04-05T00:21:50.480Z,1018.33
2017-04-05T00:22:49.386Z,1018.32
2017-04-05T00:23:49.690Z,1018.29
2017-04-05T00:24:49.396Z,1018.3
2017-04-05T00:25:49.401Z,1018.34
2017-04-05T00:26:49.404Z,1018.32
2017-04-05T00:27:49.460Z,1018.31
2017-04-05T00:28:49.416Z,1018.3
2017-04-05T00:29:49.421Z,1018.3
2017-04-05T00:30:49.427Z,1018.33
2017-04-05T00:31:49.431Z,1018.25
2017-04-05T00:32:49.438Z,1018.31
2017-04-05T00:33:49.447Z,1018.25
2017-04-05T00:34:49.497Z,1018.26
2017-04-05T00:35:49.456Z,1018.26
2017-04-05T00:36:49.461Z,1018.26
2017-04-05T00:37:49.511Z,1018.25
2017-04-05T00:38:49.471Z,1018.23
2017-04-05T00:39:49.471Z,1018.24
2017-04-05T00:40:49.477Z,1018.21
2017-04-05T00:41:49.482Z,1018.23
2017-04-05T00:42:49.487Z,1018.21
2017-04-05T00:43:50.341Z,1018.22
2017-04-05T00:44:49.547Z,1018.23
2017-04-05T00:45:49.503Z,1018.22
2017-04-05T00:46:49.506Z,1018.2
2017-04-05T00:47:49.519Z,1018.19
2017-04-05T00:48:49.519Z,1018.19
2017-04-05T00:49:49.574Z,1018.18
2017-04-05T00:50:49.529Z,1018.15
2017-04-05T00:51:49.534Z,1018.15
2017-04-05T00:52:49.539Z,1018.15
2017-04-05T00:53:49.543Z,1018.16
2017-04-05T00:54:49.551Z,1018.15
2017-04-05T00:55:49.554Z,1018.14
2017-04-05T00:56:49.560Z,1018.14
2017-04-05T00:57:49.566Z,1018.13
2017-04-05T00:58:50.370Z,1018.12
2017-04-05T00:59:49.575Z,1018.12
2017-04-05T01:00:49.585Z,1018.1
2017-04-05T01:01:49.584Z,1018.11
2017-04-05T01:02:49.590Z,1018.1
2017-04-05T01:03:49.595Z,1018.1
2017-04-05T01:04:49.899Z,1018.1
2017-04-05T01:05:49.604Z,1018.1
2017-04-05T01:06:49.665Z,1018.07
2017-04-05T01:07:49.619Z,1018.1
2017-04-05T01:08:49.617Z,1018.1
2017-04-05T01:09:49.680Z,1018.1
2017-04-05T01:10:49.629Z,1018.09
2017-04-05T01:11:49.633Z,1018.1
2017-04-05T01:12:49.658Z,1018.13
2017-04-05T01:13:49.694Z,1018.11
2017-04-05T01:14:49.700Z,1018.13
2017-04-05T01:15:49.660Z,1018.12
2017-04-05T01:16:49.661Z,1018.1
2017-04-05T01:17:49.664Z,1018.09
2017-04-05T01:18:49.670Z,1018.08
2017-04-05T01:19:49.726Z,1018.11
2017-04-05T01:20:50.781Z,1018.08
2017-04-05T01:21:49.735Z,1018.12
2017-04-05T01:22:49.739Z,1018.09
2017-04-05T01:23:49.695Z,1018.09
2017-04-05T01:24:49.699Z,1018.11
2017-04-05T01:25:49.704Z,1018.08
2017-04-05T01:26:49.709Z,1018.12
2017-04-05T01:27:49.765Z,1018.1
2017-04-05T01:28:49.770Z,1018.13
2017-04-05T01:29:49.824Z,1018.1
2017-04-05T01:30:49.781Z,1018.11
2017-04-05T01:31:49.735Z,1018.12
2017-04-05T01:33:49.796Z,1018.11
2017-04-05T01:34:49.750Z,1018.09
2017-04-05T01:35:49.756Z,1018.08
2017-04-05T01:36:49.759Z,1018.06
2017-04-05T01:37:49.764Z,1018.1
2017-04-05T01:42:36.329Z,1018.1
2017-04-05T01:43:36.579Z,1018.08
2017-04-05T01:44:36.287Z,1018.09
2017-04-05T01:45:36.290Z,1018.11
2017-04-05T01:46:36.300Z,1018.12
2017-04-05T01:47:36.303Z,1018.08
2017-04-05T01:48:36.309Z,1018.12
2017-04-05T01:49:36.315Z,1018.07
2017-04-05T01:50:36.314Z,1018.09
2017-04-05T01:51:36.320Z,1018.1
2017-04-05T01:52:36.381Z,1018.13
2017-04-05T01:53:37.482Z,1018.14
2017-04-05T01:54:36.334Z,1018.15
2017-04-05T01:55:36.339Z,1018.18
2017-04-05T01:56:36.398Z,1018.16
2017-04-05T01:57:36.351Z,1018.15
2017-04-05T01:58:36.353Z,1018.11
2017-04-05T01:59:36.360Z,1018.13
2017-04-05T02:00:36.420Z,1018.11
2017-04-05T02:01:36.425Z,1018.2
2017-04-05T02:02:36.432Z,1018.13
2017-04-05T02:03:36.380Z,1018.14
2017-04-05T02:04:36.385Z,1018.1
2017-04-05T02:05:36.391Z,1018.12
2017-04-05T02:06:36.396Z,1018.06
2017-04-05T02:07:36.400Z,1018.12
2017-04-05T02:08:36.412Z,1018.12
2017-04-05T02:10:36.465Z,1018.14
2017-04-05T02:11:36.421Z,1018.12
2017-04-05T02:12:36.475Z,1018.11
2017-04-05T02:13:36.479Z,1018.12
2017-04-05T02:14:36.434Z,1018.11
2017-04-05T02:15:37.093Z,1018.1
2017-04-05T02:16:36.451Z,1018.14
2017-04-05T02:17:36.500Z,1018.15
2017-04-05T02:18:36.456Z,1018.11
2017-04-05T02:19:36.461Z,1018.14
2017-04-05T02:20:36.464Z,1018.12
2017-04-05T02:21:36.525Z,1018.14
2017-04-05T02:22:36.476Z,1018.09
2017-04-05T02:23:36.482Z,1018.09
2017-04-05T02:24:36.485Z,1018.1
2017-04-05T02:25:36.491Z,1018.07
2017-04-05T02:26:36.496Z,1018.08
2017-04-05T02:27:36.500Z,1018.06
2017-04-05T02:28:36.557Z,1018.06
2017-04-05T02:29:36.511Z,1017.98
2017-04-05T02:30:36.516Z,1018.03
2017-04-05T02:31:36.526Z,1018.01
2017-04-05T02:32:36.526Z,1018
2017-04-05T02:34:36.585Z,1018.03
2017-04-05T02:35:36.542Z,1017.97
2017-04-05T02:36:36.547Z,1017.97
2017-04-05T02:37:36.652Z,1018
2017-04-05T02:38:36.556Z,1017.99
2017-04-05T02:39:36.562Z,1018.01
2017-04-05T02:40:36.568Z,1018.02
2017-04-05T02:41:36.622Z,1018.02
2017-04-05T02:42:36.632Z,1018.06
2017-04-05T02:43:36.582Z,1018.08
2017-04-05T02:44:36.637Z,1018.06
2017-04-05T02:45:36.592Z,1018.06
2017-04-05T02:46:36.596Z,1018.04
2017-04-05T02:47:36.610Z,1018.03
2017-04-05T02:48:36.612Z,1018.01
2017-04-05T02:49:36.610Z,1018.01
2017-04-05T02:50:36.615Z,1018.01
2017-04-05T02:51:36.622Z,1018.01
2017-04-05T02:52:36.627Z,1018
2017-04-05T02:53:36.636Z,1017.99
2017-04-05T02:54:36.641Z,1018
2017-04-05T02:55:36.643Z,1017.98
2017-04-05T02:56:36.647Z,1017.98
2017-04-05T02:57:36.653Z,1017.99
2017-04-05T02:58:36.661Z,1018.02
2017-04-05T02:59:36.664Z,1018
2017-04-05T03:00:36.667Z,1017.97
2017-04-05T03:01:37.724Z,1017.98
2017-04-05T03:02:36.678Z,1017.95
2017-04-05T03:03:36.683Z,1017.93
2017-04-05T03:04:36.695Z,1017.91
2017-04-05T03:05:36.694Z,1017.92
2017-04-05T03:06:36.699Z,1017.88
2017-04-05T03:07:36.701Z,1017.86
2017-04-05T03:08:36.709Z,1017.85
2017-04-05T03:09:36.720Z,1017.83
2017-04-05T03:10:36.724Z,1017.8
2017-04-05T03:11:36.723Z,1017.83
2017-04-05T03:12:36.727Z,1017.83
2017-04-05T03:13:36.734Z,1017.83
2017-04-05T03:14:36.744Z,1017.86
2017-04-05T03:15:36.749Z,1017.81
2017-04-05T03:16:36.748Z,1017.83
2017-04-05T03:17:36.753Z,1017.86
2017-04-05T03:18:36.763Z,1017.86
2017-04-05T03:19:36.763Z,1017.87
2017-04-05T03:20:36.767Z,1017.88
2017-04-05T03:21:36.775Z,1017.87
2017-04-05T03:22:36.784Z,1017.89
2017-04-05T03:23:37.135Z,1017.87
2017-04-05T03:24:36.788Z,1017.9
2017-04-05T03:25:36.794Z,1017.87
2017-04-05T03:26:36.848Z,1017.89
2017-04-05T03:27:36.803Z,1017.93
2017-04-05T03:28:36.808Z,1017.89
2017-04-05T03:29:36.813Z,1017.89
2017-04-05T03:30:36.819Z,1017.87
2017-04-05T03:31:36.823Z,1017.87
2017-04-05T03:32:36.828Z,1017.87
2017-04-05T03:33:36.834Z,1017.84
2017-04-05T03:34:36.838Z,1017.88
2017-04-05T03:35:36.848Z,1017.89
2017-04-05T03:36:36.852Z,1017.89
2017-04-05T03:37:36.855Z,1017.88
2017-04-05T03:38:36.858Z,1017.91
2017-04-05T03:39:36.863Z,1017.89
2017-04-05T03:40:36.868Z,1017.89
2017-04-05T03:41:36.877Z,1017.87
2017-04-05T03:42:36.879Z,1017.89
2017-04-05T03:43:36.884Z,1017.9
2017-04-05T03:44:36.888Z,1017.9
2017-04-05T03:45:37.049Z,1017.83
2017-04-05T03:46:36.900Z,1017.86
2017-04-05T03:47:36.903Z,1017.85
2017-04-05T03:48:37.109Z,1017.88
2017-04-05T03:49:36.914Z,1017.85
2017-04-05T03:50:36.918Z,1017.84
2017-04-05T03:51:36.923Z,1017.86
2017-04-05T03:52:36.979Z,1017.83
2017-04-05T03:53:36.990Z,1017.83
2017-04-05T03:54:36.939Z,1017.87
2017-04-05T03:55:36.949Z,1017.84
2017-04-05T03:56:36.948Z,1017.88
2017-04-05T03:57:36.953Z,1017.87
2017-04-05T03:58:37.009Z,1017.89
2017-04-05T03:59:36.970Z,1017.93
2017-04-05T04:00:36.976Z,1017.93
2017-04-05T04:01:36.979Z,1017.92
2017-04-05T04:02:37.035Z,1017.92
2017-04-05T04:04:37.039Z,1017.95
2017-04-05T04:05:36.999Z,1017.93
2017-04-05T04:06:37.006Z,1017.91
2017-04-05T04:07:37.004Z,1017.92
2017-04-05T04:08:37.064Z,1017.91
2017-04-05T04:09:38.021Z,1017.89
2017-04-05T04:10:37.025Z,1017.9
2017-04-05T04:11:37.025Z,1017.95
2017-04-05T04:12:37.080Z,1017.94
2017-04-05T04:13:37.033Z,1017.96
2017-04-05T04:14:37.039Z,1018
2017-04-05T04:15:37.066Z,1017.97
2017-04-05T04:16:37.054Z,1018.04
2017-04-05T04:17:37.109Z,1018.01
2017-04-05T04:18:37.063Z,1018.06
2017-04-05T04:19:37.064Z,1018.05
2017-04-05T04:20:37.074Z,1018.06
2017-04-05T04:21:37.080Z,1018.03
2017-04-05T04:22:37.080Z,1018.04
2017-04-05T04:23:37.138Z,1018.06
2017-04-05T04:24:37.088Z,1018.05
2017-04-05T04:25:37.094Z,1018.05
2017-04-05T04:26:37.100Z,1018.08
2017-04-05T04:27:37.105Z,1018.1
2017-04-05T04:28:37.109Z,1018.14
2017-04-05T04:29:37.162Z,1018.1
2017-04-05T04:30:37.125Z,1018.15
2017-04-05T04:31:37.780Z,1018.18
2017-04-05T04:32:37.179Z,1018.14
2017-04-05T04:33:37.134Z,1018.16
2017-04-05T04:34:37.139Z,1018.16
2017-04-05T04:35:37.193Z,1018.18
2017-04-05T04:36:37.199Z,1018.16
2017-04-05T04:37:37.160Z,1018.18
2017-04-05T04:38:37.158Z,1018.17
2017-04-05T04:39:37.164Z,1018.15
2017-04-05T04:40:37.219Z,1018.16
2017-04-05T04:41:37.176Z,1018.18
2017-04-05T04:42:37.179Z,1018.2
2017-04-05T04:43:37.190Z,1018.18
2017-04-05T04:44:37.191Z,1018.19
2017-04-05T04:45:37.200Z,1018.18
2017-04-05T04:46:37.198Z,1018.18
2017-04-05T04:47:37.214Z,1018.19
2017-04-05T04:48:37.210Z,1018.17
2017-04-05T04:49:37.212Z,1018.17
2017-04-05T04:50:37.268Z,1018.14
2017-04-05T04:51:37.229Z,1018.17
2017-04-05T04:52:37.280Z,1018.15
2017-04-05T04:53:37.535Z,1018.18
2017-04-05T04:54:37.241Z,1018.17
2017-04-05T04:55:37.249Z,1018.19
2017-04-05T04:56:37.249Z,1018.18
2017-04-05T04:57:37.253Z,1018.17
2017-04-05T04:58:37.258Z,1018.15
2017-04-05T04:59:37.265Z,1018.14
2017-04-05T05:00:37.325Z,1018.17
2017-04-05T05:01:37.273Z,1018.11
2017-04-05T05:02:37.283Z,1018.14
2017-04-05T05:03:37.284Z,1018.15
2017-04-05T05:04:37.338Z,1018.18
2017-04-05T05:05:37.293Z,1018.17
2017-04-05T05:06:37.605Z,1018.18
2017-04-05T05:07:37.305Z,1018.23
2017-04-05T05:08:37.609Z,1018.2
2017-04-05T05:09:37.314Z,1018.2
2017-04-05T05:10:37.319Z,1018.23
2017-04-05T05:11:37.324Z,1018.24
2017-04-05T05:12:37.334Z,1018.32
2017-04-05T05:13:37.389Z,1018.33
2017-04-05T05:14:37.339Z,1018.32
2017-04-05T05:15:37.349Z,1018.36
2017-04-05T05:16:37.354Z,1018.37
2017-04-05T05:17:37.369Z,1018.43
2017-04-05T05:18:37.364Z,1018.47
2017-04-05T05:19:37.362Z,1018.53
2017-04-05T05:20:37.375Z,1018.5
2017-04-05T05:21:37.378Z,1018.55
2017-04-05T05:22:37.377Z,1018.56
2017-04-05T05:23:37.385Z,1018.6
2017-04-05T05:24:37.394Z,1018.61
2017-04-05T05:25:37.399Z,1018.6
2017-04-05T05:26:37.447Z,1018.61
2017-04-05T05:27:37.408Z,1018.59
2017-04-05T05:28:37.458Z,1018.61
2017-04-05T05:29:37.467Z,1018.61
2017-04-05T05:30:37.967Z,1018.65
2017-04-05T05:31:37.423Z,1018.7
2017-04-05T05:32:37.427Z,1018.74
2017-04-05T05:33:39.540Z,1018.75
2017-04-05T05:34:37.437Z,1018.69
2017-04-05T05:35:37.443Z,1018.73
2017-04-05T05:36:37.453Z,1018.77
2017-04-05T05:37:37.453Z,1018.74
2017-04-05T05:38:37.458Z,1018.73
2017-04-05T05:39:37.470Z,1018.66
2017-04-05T05:40:37.468Z,1018.8
2017-04-05T05:41:37.478Z,1018.81
2017-04-05T05:42:37.483Z,1018.8
2017-04-05T05:43:37.487Z,1018.79
2017-04-05T05:44:37.489Z,1018.86
2017-04-05T05:45:37.494Z,1018.88
2017-04-05T05:46:37.498Z,1018.86
2017-04-05T05:47:37.503Z,1018.85
2017-04-05T05:48:37.509Z,1018.84
2017-04-05T05:49:37.520Z,1018.89
2017-04-05T05:50:37.571Z,1018.92
2017-04-05T05:51:37.530Z,1018.9
2017-04-05T05:52:37.580Z,1018.93
2017-04-05T05:53:37.534Z,1018.93
2017-04-05T05:54:37.539Z,1018.96
2017-04-05T05:55:37.600Z,1018.95
2017-04-05T05:56:37.549Z,1019.01
2017-04-05T05:57:37.580Z,1019
2017-04-05T05:58:37.560Z,1019.02
2017-04-05T05:59:37.565Z,1019.01
2017-04-05T06:00:37.620Z,1019.04
2017-04-05T06:01:37.582Z,1019.05
2017-04-05T06:02:37.580Z,1019.08
2017-04-05T06:03:37.585Z,1019.13
2017-04-05T06:04:37.590Z,1019.09
2017-04-05T06:05:37.596Z,1019.1
2017-04-05T06:06:37.607Z,1019.16
2017-04-05T06:07:37.604Z,1019.2
2017-04-05T06:08:37.611Z,1019.22
2017-04-05T06:09:37.616Z,1019.22
2017-04-05T06:10:37.629Z,1019.26
2017-04-05T06:11:37.629Z,1019.3
2017-04-05T06:12:37.637Z,1019.26
2017-04-05T06:13:37.689Z,1019.29
2017-04-05T06:14:37.845Z,1019.21
2017-04-05T06:15:37.701Z,1019.23
2017-04-05T06:16:37.661Z,1019.28
2017-04-05T06:17:37.665Z,1019.29
2017-04-05T06:18:37.666Z,1019.24
2017-04-05T06:19:37.727Z,1019.31
2017-04-05T06:20:37.734Z,1019.26
2017-04-05T06:21:37.685Z,1019.26
2017-04-05T06:22:37.686Z,1019.27
2017-04-05T06:23:37.699Z,1019.3
2017-04-05T06:24:37.747Z,1019.26
2017-04-05T06:25:37.708Z,1019.31
2017-04-05T06:26:37.715Z,1019.27
2017-04-05T06:27:37.715Z,1019.28
2017-04-05T06:28:37.720Z,1019.33
2017-04-05T06:29:37.732Z,1019.37
2017-04-05T06:30:37.783Z,1019.37
2017-04-05T06:31:37.770Z,1019.31
2017-04-05T06:32:37.748Z,1019.31
2017-04-05T06:34:37.754Z,1019.3
2017-04-05T06:35:37.764Z,1019.28
2017-04-05T06:36:37.769Z,1019.28
2017-04-05T06:37:37.775Z,1019.29
2017-04-05T06:38:37.776Z,1019.27
2017-04-05T06:39:37.782Z,1019.29
2017-04-05T06:40:37.840Z,1019.33
2017-04-05T06:41:37.793Z,1019.32
2017-04-05T06:42:37.848Z,1019.33
2017-04-05T06:43:37.852Z,1019.34
2017-04-05T06:44:37.810Z,1019.33
2017-04-05T06:45:37.814Z,1019.37
2017-04-05T06:46:37.817Z,1019.4
2017-04-05T06:47:37.872Z,1019.43
2017-04-05T06:48:37.835Z,1019.43
2017-04-05T06:49:37.833Z,1019.43
2017-04-05T06:50:37.842Z,1019.4
2017-04-05T06:51:37.845Z,1019.41
2017-04-05T06:52:37.850Z,1019.39
2017-04-05T06:53:37.854Z,1019.42
2017-04-05T06:54:37.860Z,1019.39
2017-04-05T06:55:37.865Z,1019.43
2017-04-05T06:56:37.919Z,1019.34
2017-04-05T06:57:37.876Z,1019.34
2017-04-05T06:58:37.880Z,1019.34
2017-04-05T06:59:37.886Z,1019.29
2017-04-05T07:00:38.642Z,1019.34
2017-04-05T07:01:37.897Z,1019.36
2017-04-05T07:02:37.956Z,1019.39
2017-04-05T07:03:37.907Z,1019.45
2017-04-05T07:04:37.912Z,1019.48
2017-04-05T07:05:37.917Z,1019.53
2017-04-05T07:06:37.978Z,1019.49
2017-04-05T07:07:37.928Z,1019.54
2017-04-05T07:08:37.933Z,1019.63
2017-04-05T07:09:37.937Z,1019.73
2017-04-05T07:10:37.943Z,1019.77
2017-04-05T07:11:37.949Z,1019.85
2017-04-05T07:12:38.018Z,1019.88
2017-04-05T07:13:37.960Z,1019.9
2017-04-05T07:14:38.087Z,1019.85
2017-04-05T07:15:38.094Z,1019.79
2017-04-05T07:16:38.085Z,1019.84
2017-04-05T07:17:38.053Z,1019.87
2017-04-05T07:18:38.217Z,1019.92
2017-04-05T07:19:38.140Z,1019.9
2017-04-05T07:20:38.067Z,1019.9
2017-04-05T07:21:38.004Z,1019.91
2017-04-05T07:22:38.413Z,1019.83
2017-04-05T07:23:38.012Z,1019.82
2017-04-05T07:24:38.018Z,1019.82
2017-04-05T07:25:38.025Z,1019.81
2017-04-05T07:26:38.035Z,1019.78
2017-04-05T07:27:38.036Z,1019.76
2017-04-05T07:28:38.092Z,1019.74
2017-04-05T07:29:38.117Z,1019.75
2017-04-05T07:30:38.052Z,1019.82
2017-04-05T07:31:38.057Z,1019.87
2017-04-05T07:32:38.062Z,1019.91
2017-04-05T07:34:38.127Z,1019.91
2017-04-05T07:35:38.078Z,1019.95
2017-04-05T07:36:38.084Z,1019.95
2017-04-05T07:37:38.491Z,1019.96
2017-04-05T07:38:38.095Z,1019.98
2017-04-05T07:39:38.101Z,1020.01
2017-04-05T07:40:38.158Z,1019.96
2017-04-05T07:41:38.113Z,1019.96
2017-04-05T07:42:38.123Z,1019.96
2017-04-05T07:43:38.124Z,1019.93
2017-04-05T07:44:38.179Z,1019.96
2017-04-05T07:45:38.134Z,1019.95
2017-04-05T07:46:38.195Z,1019.89
2017-04-05T07:47:38.149Z,1019.87
2017-04-05T07:48:38.151Z,1019.8
2017-04-05T07:49:38.212Z,1019.84
2017-04-05T07:50:38.162Z,1019.9
2017-04-05T07:51:38.168Z,1019.93
2017-04-05T07:52:38.173Z,1019.95
2017-04-05T07:53:38.179Z,1019.93
2017-04-05T07:54:38.184Z,1019.89
2017-04-05T07:55:38.190Z,1019.84
2017-04-05T07:56:38.195Z,1019.91
2017-04-05T07:57:38.202Z,1019.91
2017-04-05T07:58:38.256Z,1019.95
2017-04-05T07:59:38.611Z,1019.91
2017-04-05T08:00:38.266Z,1019.91
2017-04-05T08:01:38.272Z,1019.93
2017-04-05T08:02:38.279Z,1019.91
2017-04-05T08:03:38.233Z,1019.96
2017-04-05T08:04:38.297Z,1019.92
2017-04-05T08:05:38.253Z,1019.89
2017-04-05T08:06:38.252Z,1019.93
2017-04-05T08:07:38.262Z,1019.87
2017-04-05T08:08:39.383Z,1019.86
2017-04-05T08:09:38.274Z,1019.9
2017-04-05T08:10:38.273Z,1019.91
2017-04-05T08:11:38.284Z,1019.92
2017-04-05T08:12:38.336Z,1019.91
2017-04-05T08:13:38.345Z,1019.93
2017-04-05T08:14:38.294Z,1019.92
2017-04-05T08:15:38.302Z,1019.92
2017-04-05T08:16:38.307Z,1019.89
2017-04-05T08:17:38.314Z,1019.9
2017-04-05T08:18:38.319Z,1019.85
2017-04-05T08:19:38.375Z,1019.88
2017-04-05T08:20:38.381Z,1019.88
2017-04-05T08:21:38.485Z,1019.93
2017-04-05T08:22:38.341Z,1019.97
2017-04-05T08:23:38.347Z,1020
2017-04-05T08:24:38.353Z,1020.06
2017-04-05T08:25:38.358Z,1020.12
2017-04-05T08:26:38.364Z,1020.19
2017-04-05T08:27:38.370Z,1020.28
2017-04-05T08:28:38.377Z,1020.27
2017-04-05T08:29:38.381Z,1020.32
2017-04-05T08:30:38.387Z,1020.36
2017-04-05T08:31:38.449Z,1020.39
2017-04-05T08:32:38.504Z,1020.39
2017-04-05T08:33:38.408Z,1020.31
2017-04-05T08:34:38.417Z,1020.31
2017-04-05T08:35:38.416Z,1020.31
2017-04-05T08:36:38.474Z,1020.32
2017-04-05T08:37:38.429Z,1020.27
2017-04-05T08:38:38.438Z,1020.26
2017-04-05T08:39:38.441Z,1020.19
2017-04-05T08:40:38.495Z,1020.21
2017-04-05T08:41:38.459Z,1020.22
2017-04-05T08:42:38.459Z,1020.25
2017-04-05T08:43:38.463Z,1020.22
2017-04-05T08:44:38.468Z,1020.2
2017-04-05T08:45:38.475Z,1020.17
2017-04-05T08:46:38.487Z,1020.1
2017-04-05T08:47:38.536Z,1020.15
2017-04-05T08:48:38.491Z,1020.17
2017-04-05T08:49:38.499Z,1020.24
2017-04-05T08:50:38.504Z,1020.28
2017-04-05T08:51:38.509Z,1020.25
2017-04-05T08:52:38.515Z,1020.25
2017-04-05T08:53:38.571Z,1020.24
2017-04-05T08:54:38.527Z,1020.21
2017-04-05T08:55:38.537Z,1020.21
2017-04-05T08:56:38.588Z,1020.24
2017-04-05T08:57:38.544Z,1020.25
2017-04-05T08:58:38.549Z,1020.16
2017-04-05T08:59:38.554Z,1020.17
2017-04-05T09:00:38.658Z,1020.18
2017-04-05T09:01:38.872Z,1020.19
2017-04-05T09:02:38.569Z,1020.18
2017-04-05T09:03:38.627Z,1020.19
2017-04-05T09:04:38.633Z,1020.15
2017-04-05T09:05:38.836Z,1020.19
2017-04-05T09:06:38.644Z,1020.16
2017-04-05T09:07:38.649Z,1020.17
2017-04-05T09:08:38.604Z,1020.15
2017-04-05T09:09:38.608Z,1020.12
2017-04-05T09:10:38.669Z,1020.09
2017-04-05T09:11:38.621Z,1020.06
2017-04-05T09:12:38.625Z,1020.06
2017-04-05T09:13:38.631Z,1020.05
2017-04-05T09:14:38.637Z,1020.01
2017-04-05T09:15:38.643Z,1020.06
2017-04-05T09:16:38.697Z,1020.02
2017-04-05T09:17:38.658Z,1020
2017-04-05T09:18:38.658Z,1020.07
2017-04-05T09:19:38.716Z,1020.08
2017-04-05T09:20:38.972Z,1020.09
2017-04-05T09:21:38.725Z,1020.13
2017-04-05T09:22:38.737Z,1020.19
2017-04-05T09:23:38.743Z,1020.16
2017-04-05T09:24:38.744Z,1020.14
2017-04-05T09:25:38.748Z,1020.17
2017-04-05T09:26:38.704Z,1020.14
2017-04-05T09:27:38.710Z,1020.13
2017-04-05T09:28:38.715Z,1020.13
2017-04-05T09:29:38.725Z,1020.12
2017-04-05T09:30:38.776Z,1020.09
2017-04-05T09:31:38.732Z,1020.08
2017-04-05T09:32:38.737Z,1020.09
2017-04-05T09:34:38.748Z,1020.08
2017-04-05T09:35:38.808Z,1020.12
2017-04-05T09:36:38.759Z,1020.13
2017-04-05T09:37:38.764Z,1020.12
2017-04-05T09:38:38.775Z,1020.12
2017-04-05T09:39:38.781Z,1020.08
2017-04-05T09:40:39.285Z,1020.07
2017-04-05T09:41:38.787Z,1020.03
2017-04-05T09:42:39.198Z,1020.03
2017-04-05T09:43:38.809Z,1020.04
2017-04-05T09:44:38.805Z,1020.07
2017-04-05T09:45:38.860Z,1020.02
2017-04-05T09:46:38.815Z,1020.03
2017-04-05T09:47:38.821Z,1019.98
2017-04-05T09:48:38.827Z,1019.95
2017-04-05T09:49:38.833Z,1019.93
2017-04-05T09:50:38.841Z,1019.96
2017-04-05T09:51:38.845Z,1019.97
2017-04-05T09:52:38.855Z,1019.93
2017-04-05T09:53:38.855Z,1019.96
2017-04-05T09:54:38.864Z,1019.92
2017-04-05T09:55:38.918Z,1019.89
2017-04-05T09:56:38.924Z,1019.9
2017-04-05T09:57:38.879Z,1019.88
2017-04-05T09:58:38.884Z,1019.86
2017-04-05T09:59:38.891Z,1019.83
2017-04-05T10:00:38.895Z,1019.83
2017-04-05T10:01:38.953Z,1019.82
2017-04-05T10:02:38.917Z,1019.89
2017-04-05T10:04:38.970Z,1019.89
2017-04-05T10:05:38.925Z,1019.87
2017-04-05T10:06:38.931Z,1019.84
2017-04-05T10:07:38.936Z,1019.85
2017-04-05T10:08:38.943Z,1019.88
2017-04-05T10:09:38.956Z,1019.87
2017-04-05T10:10:38.955Z,1019.88
2017-04-05T10:11:38.961Z,1019.87
2017-04-05T10:12:39.016Z,1019.77
2017-04-05T10:13:39.024Z,1019.79
2017-04-05T10:14:38.980Z,1019.79
2017-04-05T10:15:38.985Z,1019.8
2017-04-05T10:16:39.046Z,1019.83
2017-04-05T10:17:38.995Z,1019.81
2017-04-05T10:18:39.001Z,1019.83
2017-04-05T10:19:39.059Z,1019.77
2017-04-05T10:20:39.013Z,1019.79
2017-04-05T10:21:39.020Z,1019.82
2017-04-05T10:22:39.032Z,1019.81
2017-04-05T10:23:39.031Z,1019.83
2017-04-05T10:24:39.039Z,1019.83
2017-04-05T10:25:39.048Z,1019.83
2017-04-05T10:26:39.048Z,1019.78
2017-04-05T10:27:39.055Z,1019.78
2017-04-05T10:28:40.167Z,1019.76
2017-04-05T10:29:39.065Z,1019.76
2017-04-05T10:30:39.076Z,1019.82
2017-04-05T10:31:39.078Z,1019.81
2017-04-05T10:32:39.134Z,1019.73
2017-04-05T10:33:39.095Z,1019.67
2017-04-05T10:34:39.100Z,1019.66
2017-04-05T10:35:39.100Z,1019.61
2017-04-05T10:36:39.114Z,1019.64
2017-04-05T10:37:39.118Z,1019.62
2017-04-05T10:38:39.118Z,1019.62
2017-04-05T10:39:39.375Z,1019.61
2017-04-05T10:40:39.131Z,1019.6
2017-04-05T10:41:39.141Z,1019.55
2017-04-05T10:42:39.147Z,1019.57
2017-04-05T10:43:39.148Z,1019.55
2017-04-05T10:44:39.202Z,1019.56
2017-04-05T10:45:39.160Z,1019.52
2017-04-05T10:46:39.173Z,1019.53
2017-04-05T10:47:39.228Z,1019.61
2017-04-05T10:48:39.233Z,1019.63
2017-04-05T10:49:39.184Z,1019.59
2017-04-05T10:50:40.092Z,1019.65
2017-04-05T10:51:39.245Z,1019.65
2017-04-05T10:52:39.201Z,1019.66
2017-04-05T10:53:39.208Z,1019.67
2017-04-05T10:54:39.220Z,1019.63
2017-04-05T10:55:39.219Z,1019.65
2017-04-05T10:56:39.225Z,1019.61
2017-04-05T10:57:39.232Z,1019.63
2017-04-05T10:58:39.242Z,1019.57
2017-04-05T10:59:39.245Z,1019.59
2017-04-05T11:00:39.250Z,1019.56
2017-04-05T11:01:39.257Z,1019.6
2017-04-05T11:02:39.267Z,1019.59
2017-04-05T11:03:39.270Z,1019.54
2017-04-05T11:04:39.275Z,1019.6
2017-04-05T11:05:39.331Z,1019.54
2017-04-05T11:06:39.284Z,1019.53
2017-04-05T11:07:39.292Z,1019.51
2017-04-05T11:08:39.297Z,1019.56
2017-04-05T11:09:39.309Z,1019.57
2017-04-05T11:10:39.316Z,1019.54
2017-04-05T11:11:39.322Z,1019.47
2017-04-05T11:12:39.772Z,1019.45
2017-04-05T11:13:39.327Z,1019.48
2017-04-05T11:14:39.384Z,1019.48
2017-04-05T11:15:39.339Z,1019.45
2017-04-05T11:16:39.350Z,1019.42
2017-04-05T11:17:39.356Z,1019.42
2017-04-05T11:18:39.355Z,1019.48
2017-04-05T11:19:39.367Z,1019.44
2017-04-05T11:20:39.365Z,1019.42
2017-04-05T11:21:39.372Z,1019.36
2017-04-05T11:22:39.380Z,1019.4
2017-04-05T11:23:39.385Z,1019.43
2017-04-05T11:24:39.389Z,1019.46
2017-04-05T11:25:39.445Z,1019.46
2017-04-05T11:26:39.401Z,1019.42
2017-04-05T11:27:39.457Z,1019.41
2017-04-05T11:28:39.413Z,1019.41
2017-04-05T11:29:39.417Z,1019.38
2017-04-05T11:30:40.681Z,1019.33
2017-04-05T11:31:39.479Z,1019.31
2017-04-05T11:32:39.437Z,1019.34
2017-04-05T11:34:39.498Z,1019.36
2017-04-05T11:35:39.452Z,1019.39
2017-04-05T11:36:39.459Z,1019.41
2017-04-05T11:37:39.514Z,1019.33
2017-04-05T11:38:39.470Z,1019.37
2017-04-05T11:39:39.525Z,1019.27
2017-04-05T11:40:39.480Z,1019.24
2017-04-05T11:41:39.488Z,1019.3
2017-04-05T11:42:39.491Z,1019.33
2017-04-05T11:43:39.549Z,1019.31
2017-04-05T11:44:39.506Z,1019.36
2017-04-05T11:45:39.511Z,1019.28
2017-04-05T11:46:39.567Z,1019.25
2017-04-05T11:47:39.523Z,1019.26
2017-04-05T11:48:39.530Z,1019.18
2017-04-05T11:49:39.542Z,1019.19
2017-04-05T11:50:39.590Z,1019.14
2017-04-05T11:51:39.546Z,1019.16
2017-04-05T11:52:39.555Z,1019.22
2017-04-05T11:53:39.558Z,1019.2
2017-04-05T11:54:39.566Z,1019.18
2017-04-05T11:55:39.577Z,1019.18
2017-04-05T11:56:39.627Z,1019.21
2017-04-05T11:57:39.588Z,1019.14
2017-04-05T11:58:40.640Z,1019.13
2017-04-05T11:59:39.603Z,1019.07
2017-04-05T12:00:39.657Z,1019.07
2017-04-05T12:01:39.607Z,1019.02
2017-04-05T12:02:39.614Z,1018.96
2017-04-05T12:03:39.619Z,1018.98
2017-04-05T12:04:39.675Z,1018.99
2017-04-05T12:05:39.632Z,1018.92
2017-04-05T12:06:39.638Z,1018.97
2017-04-05T12:07:39.943Z,1019.04
2017-04-05T12:08:39.653Z,1019.06
2017-04-05T12:09:39.656Z,1019.05
2017-04-05T12:10:39.663Z,1019.08
2017-04-05T12:11:39.746Z,1019.01
2017-04-05T12:12:39.672Z,1019.09
2017-04-05T12:13:39.729Z,1019.05
2017-04-05T12:14:39.691Z,1019.05
2017-04-05T12:15:39.689Z,1019.13
2017-04-05T12:16:39.746Z,1019.1
2017-04-05T12:17:39.703Z,1019.12
2017-04-05T12:18:39.708Z,1019.11
2017-04-05T12:19:39.714Z,1019.1
2017-04-05T12:20:40.820Z,1019.06
2017-04-05T12:21:39.779Z,1018.98